Time;durP1;ratioP1;P1;durP2;ratioP2;P2;SDS_P1;SDS_P2;PMS_P1;PMS_P2;Temp;Humidity;BMP_temperature;BMP_pressure;BME280_temperature;BME280_humidity;BME280_pressure;Samples;Min_cycle;Max_cycle;Signal;HPM_P1;HPM_P2
2023/11/24 00:01:42;;;;;;;;;3.00;3.00;;;;;12.26;82.16;101976.94;5054099;28;53148;-66
2023/11/24 00:04:07;;;;;;;;;6.00;3.00;;;;;12.24;82.62;101971.69;5050555;28;45346;-66
2023/11/24 00:06:32;;;;;;;;;3.33;3.00;;;;;12.22;82.65;101973.53;5058053;28;69564;-65
2023/11/24 00:08:58;;;;;;;;;3.67;3.67;;;;;12.20;83.29;101970.06;5060024;28;45572;-68
2023/11/24 00:11:25;;;;;;;;;4.67;3.00;;;;;12.19;83.40;101979.00;5059894;28;45991;-66
2023/11/24 00:13:50;;;;;;;;;2.00;2.00;;;;;12.19;83.70;101970.09;5070934;28;45369;-66
2023/11/24 00:16:15;;;;;;;;;4.00;3.33;;;;;12.19;83.46;101965.66;5040915;28;68379;-67
2023/11/24 00:18:41;;;;;;;;;2.33;2.33;;;;;12.19;83.63;101964.75;5058685;28;45484;-66
2023/11/24 00:21:06;;;;;;;;;3.67;2.33;;;;;12.18;84.10;101963.91;5057854;28;55690;-65
2023/11/24 00:23:37;;;;;;;;;3.00;3.00;;;;;12.19;84.04;101956.75;5058673;28;45364;-65
2023/11/24 00:26:06;;;;;;;;;6.67;3.67;;;;;12.22;84.37;101948.66;5058243;28;45443;-65
2023/11/24 00:28:39;;;;;;;;;4.00;4.00;;;;;12.23;84.64;101945.94;5059700;28;45618;-66
2023/11/24 00:31:07;;;;;;;;;8.00;3.67;;;;;12.24;84.18;101931.66;5061169;28;46267;-66
2023/11/24 00:33:34;;;;;;;;;4.00;3.33;;;;;12.26;83.99;101933.41;5073624;28;45508;-65
2023/11/24 00:36:00;;;;;;;;;3.00;3.00;;;;;12.25;84.19;101929.84;5058227;28;45298;-66
2023/11/24 00:38:26;;;;;;;;;3.00;3.00;;;;;12.26;84.35;101928.09;5053610;28;45231;-65
2023/11/24 00:40:51;;;;;;;;;5.00;3.00;;;;;12.26;84.59;101920.94;5057787;28;46646;-66
2023/11/24 00:43:17;;;;;;;;;3.00;3.00;;;;;12.28;84.70;101918.19;5089009;27;72451;-65
2023/11/24 00:45:42;;;;;;;;;2.33;2.33;;;;;12.29;84.67;101917.28;5056720;28;45348;-67
2023/11/24 00:48:08;;;;;;;;;3.67;2.67;;;;;12.30;84.43;101911.88;5056166;28;45604;-67
2023/11/24 00:50:34;;;;;;;;;4.00;4.00;;;;;12.31;84.31;101915.44;5044193;28;46259;-66
2023/11/24 00:53:01;;;;;;;;;3.33;3.00;;;;;12.28;84.44;101911.09;5062261;28;45342;-67
2023/11/24 00:55:26;;;;;;;;;3.00;3.00;;;;;12.29;84.67;101915.47;5073790;28;46122;-65
2023/11/24 00:57:52;;;;;;;;;5.00;3.33;;;;;12.30;85.13;101914.53;5060047;28;45805;-66
2023/11/24 01:00:17;;;;;;;;;3.00;3.00;;;;;12.32;84.97;101918.03;5080396;27;46497;-66
2023/11/24 01:02:43;;;;;;;;;4.00;4.00;;;;;12.32;84.89;101911.81;5056832;28;68656;-66
2023/11/24 01:05:09;;;;;;;;;2.67;2.67;;;;;12.33;85.31;101910.88;5057097;28;45489;-65
2023/11/24 01:07:35;;;;;;;;;4.00;4.00;;;;;12.34;85.10;101912.63;5059558;28;45458;-65
2023/11/24 01:10:00;;;;;;;;;4.00;4.00;;;;;12.35;85.07;101914.38;5058802;28;45399;-66
2023/11/24 01:12:26;;;;;;;;;7.00;5.00;;;;;12.37;84.64;101921.38;5058831;28;45421;-66
2023/11/24 01:14:51;;;;;;;;;2.33;2.33;;;;;12.39;84.38;101918.66;5056883;28;45684;-65
2023/11/24 01:17:17;;;;;;;;;4.00;4.00;;;;;12.37;84.85;101913.38;5059754;28;45481;-64
2023/11/24 01:19:42;;;;;;;;;3.00;3.00;;;;;12.37;85.28;101913.38;5057891;28;72330;-65
2023/11/24 01:22:08;;;;;;;;;5.00;4.67;;;;;12.37;84.86;101910.72;5091573;27;45369;-64
2023/11/24 01:24:34;;;;;;;;;2.00;2.00;;;;;12.37;85.41;101909.81;5058203;28;45302;-64
2023/11/24 01:27:02;;;;;;;;;4.00;4.00;;;;;12.36;85.53;101898.31;5058755;28;45401;-64
2023/11/24 01:29:28;;;;;;;;;6.67;5.00;;;;;12.38;85.22;101896.44;5025567;28;48394;-65
2023/11/24 01:31:54;;;;;;;;;4.00;4.00;;;;;12.38;85.35;101895.56;5051581;28;45386;-65
2023/11/24 01:34:19;;;;;;;;;3.67;3.00;;;;;12.38;85.86;101890.22;5059007;28;45387;-64
2023/11/24 01:36:44;;;;;;;;;5.33;3.00;;;;;12.40;85.58;101885.72;5058074;28;68208;-64
2023/11/24 01:39:12;;;;;;;;;4.67;3.00;;;;;12.40;85.20;101883.03;5058398;28;45340;-65
2023/11/24 01:41:38;;;;;;;;;5.67;3.33;;;;;12.40;86.04;101880.38;5090806;27;45383;-65
2023/11/24 01:44:03;;;;;;;;;7.00;4.33;;;;;12.40;86.16;101878.56;5058288;28;45490;-65
2023/11/24 01:46:30;;;;;;;;;6.67;4.00;;;;;12.42;85.73;101886.50;5074674;28;45601;-65
2023/11/24 01:48:57;;;;;;;;;3.00;3.00;;;;;12.43;85.76;101876.72;5058208;28;45409;-65
2023/11/24 01:51:23;;;;;;;;;5.67;4.00;;;;;12.45;85.75;101877.50;5058736;28;45577;-64
2023/11/24 01:53:49;;;;;;;;;4.00;4.00;;;;;12.43;85.72;101872.22;5091004;27;45722;-66
2023/11/24 01:56:14;;;;;;;;;4.00;4.00;;;;;12.43;85.65;101872.22;5057029;28;69373;-65
2023/11/24 01:58:40;;;;;;;;;4.67;4.00;;;;;12.43;86.37;101879.38;5062577;28;75606;-64
2023/11/24 02:01:05;;;;;;;;;7.00;4.00;;;;;12.44;86.27;101875.75;5063570;28;71040;-65
2023/11/24 02:03:31;;;;;;;;;1.67;1.67;;;;;12.44;86.43;101879.31;5068124;28;45318;-66
2023/11/24 02:05:56;;;;;;;;;5.33;4.00;;;;;12.46;86.03;101887.25;5060046;28;45320;-65
2023/11/24 02:08:22;;;;;;;;;4.00;4.00;;;;;12.46;86.77;101879.25;5062904;28;50311;-64
2023/11/24 02:10:47;;;;;;;;;5.00;5.00;;;;;12.46;86.49;101881.91;5071236;28;45391;-65
2023/11/24 02:13:13;;;;;;;;;3.00;3.00;;;;;12.46;86.23;101880.09;5072364;28;68112;-65
2023/11/24 02:15:38;;;;;;;;;5.67;5.67;;;;;12.47;86.52;101886.31;5068866;28;45418;-65
2023/11/24 02:18:04;;;;;;;;;4.33;3.33;;;;;12.47;86.31;101881.84;5061760;28;45271;-66
2023/11/24 02:20:33;;;;;;;;;4.33;3.00;;;;;12.48;86.36;101866.72;5062002;28;45435;-66
2023/11/24 02:22:58;;;;;;;;;6.00;4.00;;;;;12.48;87.38;101859.56;5064816;28;45435;-66
2023/11/24 02:25:24;;;;;;;;;5.33;4.00;;;;;12.48;87.39;101850.72;5048613;28;45564;-65
2023/11/24 02:27:49;;;;;;;;;4.00;3.67;;;;;12.47;87.14;101847.16;5061380;28;46296;-65
2023/11/24 02:30:15;;;;;;;;;5.33;5.00;;;;;12.47;86.86;101848.97;5060906;28;45516;-66
2023/11/24 02:32:41;;;;;;;;;5.00;5.00;;;;;12.46;86.90;101840.06;5061781;28;45334;-66
2023/11/24 02:35:06;;;;;;;;;6.00;5.33;;;;;12.46;87.14;101839.22;5060127;28;45553;-65
2023/11/24 02:37:32;;;;;;;;;5.67;4.00;;;;;12.44;87.16;101828.63;5060048;28;47276;-65
2023/11/24 02:39:57;;;;;;;;;4.33;2.67;;;;;12.44;87.59;101817.06;5094430;27;45314;-66
2023/11/24 02:42:23;;;;;;;;;7.00;5.00;;;;;12.43;87.59;101810.00;5060174;28;45493;-65
2023/11/24 02:44:48;;;;;;;;;7.00;4.00;;;;;12.41;87.48;101800.25;5062754;28;45494;-65
2023/11/24 02:47:13;;;;;;;;;7.33;4.67;;;;;12.41;88.08;101802.94;5064468;28;75210;-66
2023/11/24 02:49:39;;;;;;;;;7.67;5.33;;;;;12.42;88.13;101795.78;5066894;28;45172;-65
2023/11/24 02:52:05;;;;;;;;;6.67;4.33;;;;;12.41;87.96;101794.94;5063329;28;45520;-66
2023/11/24 02:54:30;;;;;;;;;6.33;5.00;;;;;12.43;88.22;101802.84;5066575;28;45614;-66
2023/11/24 02:56:56;;;;;;;;;4.67;4.67;;;;;12.44;88.07;101796.59;5061719;28;45592;-65
2023/11/24 02:59:21;;;;;;;;;4.33;4.33;;;;;12.44;88.21;101783.25;5093724;27;45730;-65
2023/11/24 03:01:46;;;;;;;;;3.00;3.00;;;;;12.44;88.39;101779.69;5059331;28;68098;-65
2023/11/24 03:04:12;;;;;;;;;6.00;4.00;;;;;12.45;88.22;101779.66;5071685;28;45621;-66
2023/11/24 03:06:47;;;;;;;;;4.00;4.00;;;;;12.46;88.01;101783.19;5067425;28;46214;-65
2023/11/24 03:09:14;;;;;;;;;5.33;4.33;;;;;12.45;88.11;101778.78;5066824;28;45354;-65
2023/11/24 03:11:39;;;;;;;;;5.67;5.67;;;;;12.45;88.66;101781.44;5039744;28;45477;-66
2023/11/24 03:14:04;;;;;;;;;4.33;3.33;;;;;12.46;88.15;101780.53;5067012;28;45465;-65
2023/11/24 03:16:33;;;;;;;;;3.00;3.00;;;;;12.48;88.60;101774.19;5061157;28;46097;-66
2023/11/24 03:18:59;;;;;;;;;7.33;3.33;;;;;12.48;88.60;101763.50;5064508;28;74594;-65
2023/11/24 03:21:24;;;;;;;;;4.67;4.00;;;;;12.49;88.34;101757.25;5039964;28;45992;-66
2023/11/24 03:23:49;;;;;;;;;3.00;3.00;;;;;12.50;88.20;101752.75;5072441;28;45348;-66
2023/11/24 03:26:15;;;;;;;;;2.00;2.00;;;;;12.49;88.48;101754.56;5092311;27;73146;-66
2023/11/24 03:28:40;;;;;;;;;4.00;4.00;;;;;12.50;88.21;101761.66;5058543;28;73209;-65
2023/11/24 03:31:05;;;;;;;;;6.67;4.67;;;;;12.51;88.44;101762.50;5059663;28;68262;-65
2023/11/24 03:33:31;;;;;;;;;6.00;5.00;;;;;12.51;88.79;101755.38;5093474;27;45695;-65
2023/11/24 03:35:56;;;;;;;;;3.67;3.33;;;;;12.53;88.58;101752.66;5059874;28;52928;-65
2023/11/24 03:38:21;;;;;;;;;3.33;3.33;;;;;12.54;88.14;101738.34;5060600;28;45450;-66
2023/11/24 03:40:51;;;;;;;;;5.67;5.00;;;;;12.53;88.70;101733.97;5059149;28;59227;-66
2023/11/24 03:43:17;;;;;;;;;4.00;3.33;;;;;12.52;88.71;101746.44;5091800;27;45498;-66
2023/11/24 03:45:43;;;;;;;;;2.00;2.00;;;;;12.52;89.23;101734.91;5061048;28;46135;-65
2023/11/24 03:48:08;;;;;;;;;3.00;3.00;;;;;12.54;89.29;101738.34;5060322;28;45433;-66
2023/11/24 03:50:33;;;;;;;;;5.00;5.00;;;;;12.53;88.59;101732.16;5059502;28;45358;-65
2023/11/24 03:52:59;;;;;;;;;5.67;3.00;;;;;12.53;88.34;101725.97;5058949;28;70353;-65
2023/11/24 03:55:24;;;;;;;;;4.33;4.33;;;;;12.53;88.80;101715.28;5059578;28;75551;-65
2023/11/24 03:57:49;;;;;;;;;6.67;4.00;;;;;12.53;88.63;101723.31;5060221;28;45448;-65
2023/11/24 04:00:15;;;;;;;;;3.67;3.33;;;;;12.53;88.89;101717.97;5058081;28;45311;-65
2023/11/24 04:02:41;;;;;;;;;4.33;2.33;;;;;12.53;89.31;101708.13;5060017;28;45480;-65
2023/11/24 04:05:08;;;;;;;;;3.33;3.33;;;;;12.54;89.23;101709.00;5039767;28;46723;-65
2023/11/24 04:07:33;;;;;;;;;3.00;3.00;;;;;12.55;89.60;101710.75;5054759;28;45388;-65
2023/11/24 04:09:59;;;;;;;;;3.00;2.33;;;;;12.57;89.70;101715.06;5058437;28;45220;-64
2023/11/24 04:12:24;;;;;;;;;5.33;4.00;;;;;12.59;89.51;101707.00;5059906;28;62376;-65
2023/11/24 04:14:49;;;;;;;;;4.00;3.33;;;;;12.60;89.72;101698.06;5057944;28;74492;-65
2023/11/24 04:17:15;;;;;;;;;4.67;4.00;;;;;12.61;89.17;101714.97;5092746;27;45193;-64
2023/11/24 04:19:40;;;;;;;;;4.00;4.00;;;;;12.60;89.32;101719.41;5060328;28;45946;-65
2023/11/24 04:22:06;;;;;;;;;4.00;4.00;;;;;12.60;89.33;101718.56;5054328;28;45367;-64
2023/11/24 04:24:31;;;;;;;;;6.00;4.67;;;;;12.58;89.24;101722.16;5063384;28;45244;-65
2023/11/24 04:26:57;;;;;;;;;3.00;3.00;;;;;12.57;89.47;101724.91;5058677;28;53205;-65
2023/11/24 04:29:24;;;;;;;;;3.33;3.33;;;;;12.59;89.61;101717.66;5059850;28;45287;-65
2023/11/24 04:31:49;;;;;;;;;4.33;4.00;;;;;12.58;89.48;101715.97;5060069;28;45362;-66
2023/11/24 04:34:15;;;;;;;;;5.00;2.67;;;;;12.59;89.75;101715.00;5059111;28;47050;-64
2023/11/24 04:36:40;;;;;;;;;4.33;4.00;;;;;12.59;89.87;101704.31;5065267;28;45390;-64
2023/11/24 04:39:05;;;;;;;;;4.00;4.00;;;;;12.62;89.50;101706.88;5059512;28;68286;-64
2023/11/24 04:41:31;;;;;;;;;4.67;4.00;;;;;12.63;90.15;101695.25;5059704;28;45741;-66
2023/11/24 04:43:57;;;;;;;;;6.67;5.00;;;;;12.63;89.92;101702.41;5063014;28;45737;-65
2023/11/24 04:46:22;;;;;;;;;5.00;4.00;;;;;12.63;89.73;101695.25;5092163;27;45419;-66
2023/11/24 04:48:48;;;;;;;;;4.00;4.00;;;;;12.64;90.26;101698.81;5058508;28;68119;-65
2023/11/24 04:51:13;;;;;;;;;4.67;3.67;;;;;12.67;89.76;101695.97;5059521;28;45449;-65
2023/11/24 04:53:38;;;;;;;;;6.00;5.00;;;;;12.66;90.25;101681.78;5037405;28;59642;-65
2023/11/24 04:56:05;;;;;;;;;3.00;3.00;;;;;12.68;90.19;101687.03;5067843;28;46502;-65
2023/11/24 04:58:30;;;;;;;;;4.00;4.00;;;;;12.67;89.90;101672.84;5059624;28;45548;-65
2023/11/24 05:00:55;;;;;;;;;5.00;3.67;;;;;12.67;90.12;101667.50;5058101;28;69537;-65
2023/11/24 05:03:21;;;;;;;;;4.33;3.33;;;;;12.66;90.38;101668.44;5057890;28;73074;-65
2023/11/24 05:05:47;;;;;;;;;3.00;3.00;;;;;12.68;90.60;101673.69;5074979;28;45329;-65
2023/11/24 05:08:12;;;;;;;;;4.33;3.33;;;;;12.69;90.17;101667.44;5054459;28;45382;-65
2023/11/24 05:10:37;;;;;;;;;3.00;3.00;;;;;12.70;89.96;101666.50;5051312;28;53958;-65
2023/11/24 05:13:03;;;;;;;;;5.00;4.00;;;;;12.68;90.06;101669.22;5057542;28;67557;-66
2023/11/24 05:15:28;;;;;;;;;5.33;5.33;;;;;12.68;89.90;101666.53;5056958;28;73435;-66
2023/11/24 05:17:53;;;;;;;;;4.33;4.00;;;;;12.68;90.35;101655.00;5057983;28;68197;-65
2023/11/24 05:20:19;;;;;;;;;4.00;4.00;;;;;12.68;90.25;101653.19;5057849;28;70475;-66
2023/11/24 05:22:45;;;;;;;;;5.00;4.00;;;;;12.67;90.18;101654.16;5058956;28;45513;-66
2023/11/24 05:25:10;;;;;;;;;3.00;3.00;;;;;12.68;90.49;101661.22;5058894;28;45454;-66
2023/11/24 05:27:36;;;;;;;;;5.00;5.00;;;;;12.69;90.33;101649.59;5057591;28;45389;-65
2023/11/24 05:30:02;;;;;;;;;5.33;3.67;;;;;12.69;90.45;101648.75;5059032;28;45494;-67
2023/11/24 05:32:27;;;;;;;;;3.67;3.67;;;;;12.71;90.46;101660.19;5058844;28;46406;-66
2023/11/24 05:34:53;;;;;;;;;6.00;5.00;;;;;12.71;89.74;101657.53;5055569;28;73732;-65
2023/11/24 05:37:19;;;;;;;;;5.00;4.00;;;;;12.69;90.21;101654.09;5058498;28;45315;-65
2023/11/24 05:39:44;;;;;;;;;3.00;3.00;;;;;12.68;90.11;101644.34;5058642;28;68589;-66
2023/11/24 05:42:09;;;;;;;;;6.67;4.00;;;;;12.66;89.68;101639.06;5092323;27;45522;-66
2023/11/24 05:44:35;;;;;;;;;4.00;4.00;;;;;12.63;90.31;101633.84;5057097;28;73250;-66
2023/11/24 05:47:04;;;;;;;;;4.00;4.00;;;;;12.61;89.94;101638.41;5090531;27;45349;-65
2023/11/24 05:49:29;;;;;;;;;4.33;3.67;;;;;12.57;90.30;101635.00;5062503;28;45411;-65
2023/11/24 05:51:55;;;;;;;;;4.33;4.00;;;;;12.54;90.30;101637.84;5090562;27;45548;-65
2023/11/24 05:54:20;;;;;;;;;5.33;4.00;;;;;12.52;90.51;101636.16;5064896;28;72025;-66
2023/11/24 05:56:45;;;;;;;;;5.00;5.00;;;;;12.49;90.32;101634.50;5057637;28;65814;-66
2023/11/24 05:59:11;;;;;;;;;4.00;4.00;;;;;12.48;90.42;101634.56;5064497;28;45541;-66
2023/11/24 06:01:36;;;;;;;;;3.67;3.67;;;;;12.46;90.92;101620.41;5053541;28;56194;-66
2023/11/24 06:04:02;;;;;;;;;2.00;0.33;;;;;12.46;90.24;101621.28;5055353;28;45831;-66
2023/11/24 06:06:27;;;;;;;;;4.00;3.33;;;;;12.47;90.95;101623.00;5063306;28;45451;-67
2023/11/24 06:08:53;;;;;;;;;4.33;4.00;;;;;12.48;90.73;101618.56;5057110;28;66762;-66
2023/11/24 06:11:18;;;;;;;;;3.00;3.00;;;;;12.48;90.94;101629.25;5063983;28;46298;-67
2023/11/24 06:13:47;;;;;;;;;3.67;3.67;;;;;12.47;90.44;101631.03;5058136;28;70726;-67
2023/11/24 06:16:12;;;;;;;;;3.00;3.00;;;;;12.49;91.25;101641.63;5057866;28;45225;-66
2023/11/24 06:18:41;;;;;;;;;3.00;3.00;;;;;12.48;90.13;101648.78;5089892;27;70400;-66
2023/11/24 06:21:10;;;;;;;;;4.00;4.00;;;;;12.45;90.47;101638.25;5056592;28;45752;-66
2023/11/24 06:23:36;;;;;;;;;5.00;5.00;;;;;12.45;90.50;101643.59;5070453;28;46006;-67
2023/11/24 06:26:01;;;;;;;;;5.67;4.00;;;;;12.40;90.81;101651.78;5075986;28;45397;-67
2023/11/24 06:28:27;;;;;;;;;4.00;4.00;;;;;12.40;90.76;101651.78;5056838;28;70374;-67
2023/11/24 06:30:52;;;;;;;;;4.33;2.00;;;;;12.41;90.94;101648.19;5056529;28;47516;-66
2023/11/24 06:33:17;;;;;;;;;3.67;3.67;;;;;12.41;90.30;101640.19;5055483;28;45398;-66
2023/11/24 06:35:43;;;;;;;;;3.00;3.00;;;;;12.42;90.57;101649.03;5056579;28;45337;-65
2023/11/24 06:38:08;;;;;;;;;3.00;3.00;;;;;12.40;90.38;101643.78;5054727;28;59372;-65
2023/11/24 06:40:34;;;;;;;;;2.00;2.00;;;;;12.40;90.50;101657.13;5055410;28;45465;-65
2023/11/24 06:42:59;;;;;;;;;3.00;3.00;;;;;12.40;90.42;101665.13;5055857;28;45233;-66
2023/11/24 06:45:25;;;;;;;;;6.00;5.00;;;;;12.40;90.05;101656.25;5058055;28;46081;-66
2023/11/24 06:47:50;;;;;;;;;5.00;2.00;;;;;12.39;90.16;101635.84;5057040;28;45450;-67
2023/11/24 06:50:15;;;;;;;;;7.00;6.00;;;;;12.38;90.29;101640.31;5041703;28;75249;-66
2023/11/24 06:52:42;;;;;;;;;7.33;6.00;;;;;12.37;90.24;101637.69;5061425;28;46508;-58
2023/11/24 06:55:08;;;;;;;;;6.00;4.67;;;;;12.36;89.92;101636.84;5062078;28;45718;-61
2023/11/24 06:57:34;;;;;;;;;5.00;5.00;;;;;12.35;90.29;101629.78;5055836;28;45629;-55
2023/11/24 06:59:59;;;;;;;;;5.00;3.00;;;;;12.36;90.14;101634.19;5064350;28;45712;-62
2023/11/24 07:02:24;;;;;;;;;6.00;4.33;;;;;12.36;90.56;101638.66;5058856;28;73386;-62
2023/11/24 07:04:50;;;;;;;;;6.00;3.33;;;;;12.36;90.64;101647.50;5070092;28;45334;-62
2023/11/24 07:07:15;;;;;;;;;3.33;2.67;;;;;12.37;90.38;101641.25;5058658;28;68550;-62
2023/11/24 07:09:41;;;;;;;;;3.00;3.00;;;;;12.36;90.46;101622.66;5061022;28;45276;-62
2023/11/24 07:12:07;;;;;;;;;3.00;2.33;;;;;12.37;90.49;101643.03;5060415;28;45551;-61
2023/11/24 07:14:33;;;;;;;;;3.33;3.00;;;;;12.37;90.17;101635.03;5061094;28;45315;-60
2023/11/24 07:16:58;;;;;;;;;4.33;3.33;;;;;12.36;89.72;101636.84;5061113;28;45229;-60
2023/11/24 07:19:24;;;;;;;;;3.67;3.00;;;;;12.36;89.65;101639.50;5104197;27;45592;-60
2023/11/24 07:21:49;;;;;;;;;3.33;3.33;;;;;12.37;89.31;101629.69;5064791;28;45635;-61
2023/11/24 07:24:14;;;;;;;;;7.00;4.00;;;;;12.37;89.08;101638.59;5064271;28;45595;-61
2023/11/24 07:26:40;;;;;;;;;2.00;2.00;;;;;12.36;88.43;101644.00;5094689;27;67567;-62
2023/11/24 07:29:05;;;;;;;;;2.00;2.00;;;;;12.35;87.82;101643.09;5073673;28;45470;-66
2023/11/24 07:31:31;;;;;;;;;4.33;3.00;;;;;12.31;85.28;101652.19;5067659;28;45466;-65
2023/11/24 07:33:56;;;;;;;;;1.00;1.00;;;;;12.27;84.71;101663.94;5092674;27;45513;-64
2023/11/24 07:36:21;;;;;;;;;2.00;2.00;;;;;12.21;82.82;101658.84;5058871;28;45237;-65
2023/11/24 07:38:47;;;;;;;;;1.67;1.00;;;;;12.14;80.25;101662.72;5061991;28;75967;-65
2023/11/24 07:41:14;;;;;;;;;1.00;1.00;;;;;12.08;79.28;101656.72;5061007;28;45997;-65
2023/11/24 07:43:39;;;;;;;;;1.00;1.00;;;;;12.02;77.17;101654.31;5055375;28;45495;-65
2023/11/24 07:46:07;;;;;;;;;1.00;1.00;;;;;11.99;78.06;101662.41;5074788;28;54206;-64
2023/11/24 07:48:33;;;;;;;;;1.00;1.00;;;;;11.96;77.33;101657.22;5080523;27;45546;-65
2023/11/24 07:50:59;;;;;;;;;1.00;1.00;;;;;11.96;77.81;101659.91;5041752;28;45309;-64
2023/11/24 07:53:24;;;;;;;;;1.67;1.33;;;;;11.97;76.62;101656.31;5086347;27;45411;-64
2023/11/24 07:55:50;;;;;;;;;1.00;1.00;;;;;11.97;75.46;101661.63;5048876;28;59474;-65
2023/11/24 07:58:16;;;;;;;;;2.67;1.00;;;;;11.99;75.36;101657.09;5050352;28;74817;-64
2023/11/24 08:00:41;;;;;;;;;2.00;2.00;;;;;12.01;75.87;101659.72;5057416;28;45886;-60
2023/11/24 08:03:06;;;;;;;;;1.00;1.00;;;;;12.04;74.84;101659.56;5071965;27;45873;-60
2023/11/24 08:05:32;;;;;;;;;0.67;0.67;;;;;12.07;74.59;101663.00;5058021;28;45631;-60
2023/11/24 08:07:58;;;;;;;;;1.33;1.00;;;;;12.13;75.67;101667.19;5055124;28;46092;-60
2023/11/24 08:10:23;;;;;;;;;1.00;1.00;;;;;12.14;75.00;101666.25;5059589;28;45429;-60
2023/11/24 08:12:49;;;;;;;;;1.00;1.00;;;;;12.15;73.72;101668.00;5061893;28;45512;-60
2023/11/24 08:15:15;;;;;;;;;0.00;0.00;;;;;12.15;73.65;101668.00;5064325;28;68601;-60
2023/11/24 08:17:40;;;;;;;;;0.67;0.33;;;;;12.19;73.44;101674.94;5058196;28;46229;-60
2023/11/24 08:20:10;;;;;;;;;1.00;1.00;;;;;12.19;73.29;101672.25;5060718;28;45434;-60
2023/11/24 08:22:35;;;;;;;;;6.00;2.00;;;;;12.22;73.32;101669.44;5069674;28;45514;-60
2023/11/24 08:25:01;;;;;;;;;5.00;1.33;;;;;12.26;72.76;101656.00;5093338;27;45413;-60
2023/11/24 08:27:26;;;;;;;;;1.67;1.00;;;;;12.30;71.24;101662.94;5062351;28;74856;-61
2023/11/24 08:29:51;;;;;;;;;2.00;1.00;;;;;12.31;72.18;101670.88;5063441;28;68095;-61
2023/11/24 08:32:17;;;;;;;;;1.00;1.00;;;;;12.35;73.07;101664.44;5068284;28;69788;-61
2023/11/24 08:34:42;;;;;;;;;4.67;2.00;;;;;12.36;71.44;101663.53;5063954;28;45476;-60
2023/11/24 08:37:08;;;;;;;;;2.00;1.00;;;;;12.36;71.71;101665.34;5058980;28;46367;-61
2023/11/24 08:39:33;;;;;;;;;2.00;2.00;;;;;12.38;70.91;101676.78;5056468;28;45506;-60
2023/11/24 08:41:59;;;;;;;;;4.33;1.00;;;;;12.37;70.29;101669.72;5056744;28;45431;-61
2023/11/24 08:44:24;;;;;;;;;2.00;2.00;;;;;12.39;70.70;101667.84;5060633;28;45696;-61
2023/11/24 08:46:51;;;;;;;;;1.00;1.00;;;;;12.39;70.41;101666.03;5052480;28;46206;-61
2023/11/24 08:49:17;;;;;;;;;3.00;1.00;;;;;12.43;71.19;101661.44;5071085;28;45587;-61
2023/11/24 08:51:42;;;;;;;;;1.00;1.00;;;;;12.47;70.25;101654.19;5065010;28;45629;-61
2023/11/24 08:54:09;;;;;;;;;2.00;1.00;;;;;12.54;71.09;101661.84;5058523;28;70604;-61
2023/11/24 08:56:34;;;;;;;;;1.67;1.67;;;;;12.59;70.67;101653.63;5060320;28;48139;-62
2023/11/24 08:58:59;;;;;;;;;2.00;2.00;;;;;12.60;70.31;101650.03;5061532;28;45357;-61
2023/11/24 09:01:24;;;;;;;;;2.00;2.00;;;;;12.59;69.61;101656.28;5062662;28;45442;-60
2023/11/24 09:03:50;;;;;;;;;1.67;1.67;;;;;12.58;70.44;101649.25;5039575;28;70439;-62
2023/11/24 09:06:15;;;;;;;;;3.67;1.00;;;;;12.59;70.45;101653.63;5057973;28;61289;-62
2023/11/24 09:08:41;;;;;;;;;4.00;2.00;;;;;12.58;68.09;101652.75;5059061;28;45611;-61
2023/11/24 09:11:07;;;;;;;;;2.00;1.00;;;;;12.58;69.29;101655.44;5056621;28;46309;-62
2023/11/24 09:13:32;;;;;;;;;2.33;1.00;;;;;12.58;68.72;101649.25;5063368;28;45468;-62
2023/11/24 09:15:58;;;;;;;;;3.00;1.00;;;;;12.62;68.28;101633.94;5059085;28;45428;-61
2023/11/24 09:18:23;;;;;;;;;5.33;1.00;;;;;12.64;67.61;101643.59;5057232;28;69824;-61
2023/11/24 09:20:49;;;;;;;;;5.00;2.00;;;;;12.64;68.58;101648.94;5056549;28;45431;-61
2023/11/24 09:23:15;;;;;;;;;2.00;1.00;;;;;12.64;66.25;101645.41;5060402;28;45499;-62
2023/11/24 09:25:40;;;;;;;;;2.00;1.00;;;;;12.66;66.66;101644.41;5060310;28;45500;-61
2023/11/24 09:28:05;;;;;;;;;2.67;1.00;;;;;12.71;67.05;101638.84;5057514;28;45374;-61
2023/11/24 09:30:31;;;;;;;;;2.00;2.00;;;;;12.73;65.52;101634.31;5063387;28;48206;-60
2023/11/24 09:32:56;;;;;;;;;1.67;1.00;;;;;12.75;64.32;101643.13;5060094;28;68372;-61
2023/11/24 09:35:22;;;;;;;;;2.33;1.00;;;;;12.79;65.87;101638.50;5056039;28;65837;-61
2023/11/24 09:37:48;;;;;;;;;2.00;1.00;;;;;12.81;66.82;101637.50;5060186;28;45278;-61
2023/11/24 09:40:16;;;;;;;;;1.33;1.00;;;;;12.82;66.35;101641.03;5065318;28;57659;-61
2023/11/24 09:42:44;;;;;;;;;3.00;1.00;;;;;12.82;65.68;101630.38;5039834;28;45339;-62
2023/11/24 09:45:15;;;;;;;;;0.67;0.67;;;;;12.79;65.79;101639.38;5062120;28;47928;-61
2023/11/24 09:47:51;;;;;;;;;1.33;1.33;;;;;12.78;64.50;101642.13;5058798;28;45517;-61
2023/11/24 09:50:23;;;;;;;;;1.00;1.00;;;;;12.74;64.18;101644.91;5043615;28;45541;-61
2023/11/24 09:52:50;;;;;;;;;1.00;1.00;;;;;12.67;64.89;101650.59;5057478;28;45522;-61
2023/11/24 09:55:16;;;;;;;;;1.67;1.33;;;;;12.62;63.45;101650.84;5072864;27;47248;-61
2023/11/24 09:57:43;;;;;;;;;2.00;1.00;;;;;12.59;63.46;101642.94;5057413;28;45477;-61
2023/11/24 10:00:09;;;;;;;;;4.33;1.00;;;;;12.62;63.29;101642.81;5090169;27;45436;-61
2023/11/24 10:02:36;;;;;;;;;1.00;1.00;;;;;12.65;63.13;101636.47;5059964;28;45557;-61
2023/11/24 10:05:02;;;;;;;;;2.00;0.00;;;;;12.67;61.21;101630.13;5059996;28;46259;-60
2023/11/24 10:07:28;;;;;;;;;4.00;3.00;;;;;12.70;62.64;101623.78;5050169;28;45601;-62
2023/11/24 10:09:54;;;;;;;;;1.00;1.00;;;;;12.70;62.06;101616.63;5056509;28;57831;-60
2023/11/24 10:12:19;;;;;;;;;3.00;0.00;;;;;12.70;61.83;101627.31;5058293;28;45567;-61
2023/11/24 10:14:45;;;;;;;;;1.00;1.00;;;;;12.69;61.81;101619.38;5041524;28;46561;-61
2023/11/24 10:17:10;;;;;;;;;4.00;1.00;;;;;12.65;61.35;101628.47;5061010;28;45474;-61
2023/11/24 10:19:36;;;;;;;;;1.00;1.00;;;;;12.57;60.37;101619.00;5055807;28;45399;-61
2023/11/24 10:22:02;;;;;;;;;1.00;1.00;;;;;12.54;61.53;101636.94;5056136;28;45717;-61
2023/11/24 10:24:31;;;;;;;;;3.00;1.00;;;;;12.50;61.22;101622.00;5057498;28;47849;-60
2023/11/24 10:26:57;;;;;;;;;0.00;0.00;;;;;12.49;60.36;101621.16;5060690;28;45570;-60
2023/11/24 10:29:27;;;;;;;;;4.00;1.50;;;;;12.50;60.49;101611.34;5058375;28;67963;-61
2023/11/24 10:31:52;;;;;;;;;1.67;0.00;;;;;12.48;59.79;101607.91;5061468;28;46635;-63
2023/11/24 10:34:18;;;;;;;;;1.00;1.00;;;;;12.49;60.71;101604.25;5060668;28;46285;-63
2023/11/24 10:36:43;;;;;;;;;1.67;1.67;;;;;12.51;60.06;101602.41;5062812;28;45764;-63
2023/11/24 10:39:12;;;;;;;;;1.00;1.00;;;;;12.53;59.97;101605.88;5058848;28;45392;-63
2023/11/24 10:41:42;;;;;;;;;4.67;1.00;;;;;12.60;59.47;101590.44;5059661;28;45761;-64
2023/11/24 10:44:11;;;;;;;;;2.00;0.67;;;;;12.65;59.69;101588.44;5064510;28;45525;-63
2023/11/24 10:46:43;;;;;;;;;1.00;1.00;;;;;12.67;60.11;101582.09;5077140;27;45486;-63
2023/11/24 10:49:16;;;;;;;;;1.00;1.00;;;;;12.72;60.13;101569.41;5065564;28;45346;-63
2023/11/24 10:51:52;;;;;;;;;0.33;0.33;;;;;12.80;59.52;101561.03;5060595;28;45639;-63
2023/11/24 10:54:25;;;;;;;;;4.00;4.00;;;;;12.87;60.16;101561.59;5058902;28;45510;-63
2023/11/24 10:56:56;;;;;;;;;2.00;2.00;;;;;12.89;57.29;101552.59;5061791;28;45343;-62
2023/11/24 10:59:22;;;;;;;;;3.33;2.00;;;;;12.94;59.27;101551.50;5062459;28;45511;-64
2023/11/24 11:01:49;;;;;;;;;2.00;2.00;;;;;12.97;59.38;101554.00;5062770;28;60950;-64
2023/11/24 11:04:14;;;;;;;;;4.67;1.00;;;;;13.01;58.75;101543.13;5057946;28;45376;-64
2023/11/24 11:06:43;;;;;;;;;1.67;1.67;;;;;13.04;57.73;101550.97;5059961;28;45323;-64
2023/11/24 11:11:46;;;;;;;;;2.67;1.00;;;;;13.06;58.04;101542.88;5065840;28;45516;-64
2023/11/24 11:14:14;;;;;;;;;1.00;1.00;;;;;13.01;58.09;101539.56;5059296;28;45504;-64
2023/11/24 11:16:39;;;;;;;;;2.00;1.00;;;;;12.99;56.83;101538.78;5041540;28;45328;-63
2023/11/24 11:19:33;;;;;;;;;2.00;2.00;;;;;12.99;58.01;101534.28;5077930;27;45203;-64
2023/11/24 11:22:04;;;;;;;;;2.67;2.00;;;;;12.98;58.32;101529.03;5066782;28;45536;-62